Terminal Aerodrome Forecast
Issued by NWS

Current Version | Previous Version | Graphics & Text | Print | Product List | Glossary On
Versions: 1 2 3 4 5 6 7 8 9 10 11 12 13 14 15 16 17 18 19 20 21 22 23 24 25 26 27 28 29
283
FTUS41 KRLX 272100 AAB
TAFCKB
TAF AMD
KCKB 272100Z 2721/2818 20009KT P6SM -RA SCT060 BKN080 OVC090
      TEMPO 2721/2723 3SM SHRA OVC025
     FM272300 22008KT P6SM BKN040
     FM280700 00000KT P6SM BKN050
     FM281100 00000KT P6SM SCT050=

USA.gov is the U.S. government's official web portal to all federal, state and local government web resources and services.